Arthur, Nebraska
Current Conditions -  °F | °C
As of 1:35 PM on Tuesday 21 Oct 2014 (Local Time) from KOGA Reporting Station
Clear Clear  
Wind Chill: 77°   Ceiling: Unl
Heat Index: 78°   Visibility: 10mi
Dew Point: 54°   Wind: 18mph
Humidity: 44%   Direction: 180°S
Pressure: 29.92"   Gusts: 28mph
Location:  41.57°N, 101.69°W
Report Text: KOGA 211935Z AUTO 18016G24KT 10SM CLR 25/12 A2992 RMK AO2 T02510121
Loading
Personal Weather Stations






























Interactive Weather Map
Tropical Storm Tracking
New forecast layout! Learn more

10-Day Weather Forecast

Advertisements
Track Severe Weather on mobile